sensor_id;sensor_type;location;lat;lon;timestamp;temperature;humidity
53711;DHT22;39605;52.704;6.752;2022-12-26T00:02:13;8.90;99.90
53711;DHT22;39605;52.704;6.752;2022-12-26T00:04:39;8.90;99.90
53711;DHT22;39605;52.704;6.752;2022-12-26T00:07:05;8.80;99.90
53711;DHT22;39605;52.704;6.752;2022-12-26T00:09:32;8.90;99.90
53711;DHT22;39605;52.704;6.752;2022-12-26T00:11:58;8.90;99.90
53711;DHT22;39605;52.704;6.752;2022-12-26T00:14:23;8.90;99.90
53711;DHT22;39605;52.704;6.752;2022-12-26T00:16:49;8.90;99.90
53711;DHT22;39605;52.704;6.752;2022-12-26T00:19:15;8.90;99.90
53711;DHT22;39605;52.704;6.752;2022-12-26T00:21:41;8.80;99.90
53711;DHT22;39605;52.704;6.752;2022-12-26T00:24:09;8.90;99.90
53711;DHT22;39605;52.704;6.752;2022-12-26T00:26:36;8.90;99.90
53711;DHT22;39605;52.704;6.752;2022-12-26T00:29:02;8.90;99.90
53711;DHT22;39605;52.704;6.752;2022-12-26T00:31:30;8.90;99.90
53711;DHT22;39605;52.704;6.752;2022-12-26T00:34:00;8.90;99.90
53711;DHT22;39605;52.704;6.752;2022-12-26T00:36:32;8.90;99.90
53711;DHT22;39605;52.704;6.752;2022-12-26T00:38:59;8.90;99.90
53711;DHT22;39605;52.704;6.752;2022-12-26T00:41:26;8.90;99.90
53711;DHT22;39605;52.704;6.752;2022-12-26T00:43:52;8.90;99.90
53711;DHT22;39605;52.704;6.752;2022-12-26T00:46:20;8.90;99.90
53711;DHT22;39605;52.704;6.752;2022-12-26T00:48:46;8.90;99.90
53711;DHT22;39605;52.704;6.752;2022-12-26T00:51:13;8.90;99.90
53711;DHT22;39605;52.704;6.752;2022-12-26T00:53:41;8.90;99.90
53711;DHT22;39605;52.704;6.752;2022-12-26T00:56:09;8.90;99.90
53711;DHT22;39605;52.704;6.752;2022-12-26T00:58:38;8.90;99.90
53711;DHT22;39605;52.704;6.752;2022-12-26T01:01:14;8.90;99.90
53711;DHT22;39605;52.704;6.752;2022-12-26T01:03:41;8.90;99.90
53711;DHT22;39605;52.704;6.752;2022-12-26T01:06:10;8.90;99.90
53711;DHT22;39605;52.704;6.752;2022-12-26T01:08:36;8.90;99.90
53711;DHT22;39605;52.704;6.752;2022-12-26T01:11:12;8.90;99.90
53711;DHT22;39605;52.704;6.752;2022-12-26T01:13:48;8.90;99.90
53711;DHT22;39605;52.704;6.752;2022-12-26T01:16:17;8.90;99.90
53711;DHT22;39605;52.704;6.752;2022-12-26T01:18:44;8.90;99.90
53711;DHT22;39605;52.704;6.752;2022-12-26T01:21:10;8.90;99.90
53711;DHT22;39605;52.704;6.752;2022-12-26T01:23:35;8.90;99.90
53711;DHT22;39605;52.704;6.752;2022-12-26T01:26:04;8.90;99.90
53711;DHT22;39605;52.704;6.752;2022-12-26T01:28:30;8.90;99.90
53711;DHT22;39605;52.704;6.752;2022-12-26T01:31:00;8.90;99.90
53711;DHT22;39605;52.704;6.752;2022-12-26T01:33:26;8.90;99.90
53711;DHT22;39605;52.704;6.752;2022-12-26T01:35:52;8.90;99.90
53711;DHT22;39605;52.704;6.752;2022-12-26T01:38:19;8.90;99.90
53711;DHT22;39605;52.704;6.752;2022-12-26T01:40:45;8.90;99.90
53711;DHT22;39605;52.704;6.752;2022-12-26T01:43:13;8.90;99.90
53711;DHT22;39605;52.704;6.752;2022-12-26T01:45:38;8.90;99.90
53711;DHT22;39605;52.704;6.752;2022-12-26T01:48:22;8.90;99.90
53711;DHT22;39605;52.704;6.752;2022-12-26T01:50:59;8.90;99.90
53711;DHT22;39605;52.704;6.752;2022-12-26T01:53:30;8.90;99.90
53711;DHT22;39605;52.704;6.752;2022-12-26T01:56:05;8.90;99.90
53711;DHT22;39605;52.704;6.752;2022-12-26T01:58:42;8.90;99.90
53711;DHT22;39605;52.704;6.752;2022-12-26T02:01:11;8.90;99.90
53711;DHT22;39605;52.704;6.752;2022-12-26T02:03:39;8.90;99.90
53711;DHT22;39605;52.704;6.752;2022-12-26T02:06:26;8.90;99.90
53711;DHT22;39605;52.704;6.752;2022-12-26T02:08:52;8.90;99.90
53711;DHT22;39605;52.704;6.752;2022-12-26T02:11:23;8.90;99.90
53711;DHT22;39605;52.704;6.752;2022-12-26T02:13:50;8.90;99.90
53711;DHT22;39605;52.704;6.752;2022-12-26T02:16:17;9.00;99.90
53711;DHT22;39605;52.704;6.752;2022-12-26T02:18:44;8.90;99.90
53711;DHT22;39605;52.704;6.752;2022-12-26T02:27:05;8.90;99.90
53711;DHT22;39605;52.704;6.752;2022-12-26T02:29:56;9.00;99.90
53711;DHT22;39605;52.704;6.752;2022-12-26T02:32:38;9.00;99.90
53711;DHT22;39605;52.704;6.752;2022-12-26T02:46:37;9.00;99.90
53711;DHT22;39605;52.704;6.752;2022-12-26T02:49:48;9.00;99.90
53711;DHT22;39605;52.704;6.752;2022-12-26T02:55:49;9.00;99.90
53711;DHT22;39605;52.704;6.752;2022-12-26T02:58:54;9.00;99.90
53711;DHT22;39605;52.704;6.752;2022-12-26T03:01:44;9.00;99.90
53711;DHT22;39605;52.704;6.752;2022-12-26T03:04:31;9.00;99.90
53711;DHT22;39605;52.704;6.752;2022-12-26T03:07:32;9.10;99.90
53711;DHT22;39605;52.704;6.752;2022-12-26T03:10:21;9.10;99.90
53711;DHT22;39605;52.704;6.752;2022-12-26T03:13:21;9.10;99.90
53711;DHT22;39605;52.704;6.752;2022-12-26T03:18:42;9.10;99.90
53711;DHT22;39605;52.704;6.752;2022-12-26T03:21:11;9.10;99.90
53711;DHT22;39605;52.704;6.752;2022-12-26T03:23:49;9.10;99.90
53711;DHT22;39605;52.704;6.752;2022-12-26T03:26:26;9.10;99.90
53711;DHT22;39605;52.704;6.752;2022-12-26T03:29:11;9.10;99.90
53711;DHT22;39605;52.704;6.752;2022-12-26T03:32:02;9.10;99.90
53711;DHT22;39605;52.704;6.752;2022-12-26T03:34:44;9.20;99.90
53711;DHT22;39605;52.704;6.752;2022-12-26T03:46:16;9.10;99.90
53711;DHT22;39605;52.704;6.752;2022-12-26T03:49:20;9.10;99.90
53711;DHT22;39605;52.704;6.752;2022-12-26T03:52:22;9.10;99.90
53711;DHT22;39605;52.704;6.752;2022-12-26T03:58:12;9.10;99.90
53711;DHT22;39605;52.704;6.752;2022-12-26T04:01:04;9.10;99.90
53711;DHT22;39605;52.704;6.752;2022-12-26T04:03:52;9.10;99.90
53711;DHT22;39605;52.704;6.752;2022-12-26T04:06:52;9.00;99.90
53711;DHT22;39605;52.704;6.752;2022-12-26T04:10:16;9.10;99.90
53711;DHT22;39605;52.704;6.752;2022-12-26T04:13:00;9.00;99.90
53711;DHT22;39605;52.704;6.752;2022-12-26T04:16:29;9.00;99.90
53711;DHT22;39605;52.704;6.752;2022-12-26T04:22:15;9.00;99.90
53711;DHT22;39605;52.704;6.752;2022-12-26T04:25:13;9.10;99.90
53711;DHT22;39605;52.704;6.752;2022-12-26T04:27:58;9.00;99.90
53711;DHT22;39605;52.704;6.752;2022-12-26T04:30:49;9.00;99.90
53711;DHT22;39605;52.704;6.752;2022-12-26T04:34:07;9.00;99.90
53711;DHT22;39605;52.704;6.752;2022-12-26T04:36:58;9.10;99.90
53711;DHT22;39605;52.704;6.752;2022-12-26T04:39:48;9.10;99.90
53711;DHT22;39605;52.704;6.752;2022-12-26T04:42:38;9.00;99.90
53711;DHT22;39605;52.704;6.752;2022-12-26T04:45:32;9.10;99.90
53711;DHT22;39605;52.704;6.752;2022-12-26T04:48:10;9.10;99.90
53711;DHT22;39605;52.704;6.752;2022-12-26T04:50:59;9.10;99.90
53711;DHT22;39605;52.704;6.752;2022-12-26T04:53:27;9.10;99.90
53711;DHT22;39605;52.704;6.752;2022-12-26T04:56:04;9.10;99.90
53711;DHT22;39605;52.704;6.752;2022-12-26T04:58:38;9.10;99.90
53711;DHT22;39605;52.704;6.752;2022-12-26T05:01:11;9.00;99.90
53711;DHT22;39605;52.704;6.752;2022-12-26T05:03:58;9.00;99.90
53711;DHT22;39605;52.704;6.752;2022-12-26T05:06:48;9.00;99.90
53711;DHT22;39605;52.704;6.752;2022-12-26T05:09:40;9.00;99.90
53711;DHT22;39605;52.704;6.752;2022-12-26T05:12:11;9.00;99.90
53711;DHT22;39605;52.704;6.752;2022-12-26T05:14:42;9.00;99.90
53711;DHT22;39605;52.704;6.752;2022-12-26T05:17:18;9.00;99.90
53711;DHT22;39605;52.704;6.752;2022-12-26T05:20:04;9.00;99.90
53711;DHT22;39605;52.704;6.752;2022-12-26T05:22:51;9.00;99.90
53711;DHT22;39605;52.704;6.752;2022-12-26T05:25:40;8.90;99.90
53711;DHT22;39605;52.704;6.752;2022-12-26T05:28:25;8.90;99.90
53711;DHT22;39605;52.704;6.752;2022-12-26T05:31:16;8.90;99.90
53711;DHT22;39605;52.704;6.752;2022-12-26T05:33:51;8.90;99.90
53711;DHT22;39605;52.704;6.752;2022-12-26T05:36:51;8.90;99.90
53711;DHT22;39605;52.704;6.752;2022-12-26T05:39:29;8.90;99.90
53711;DHT22;39605;52.704;6.752;2022-12-26T05:41:55;8.80;99.90
53711;DHT22;39605;52.704;6.752;2022-12-26T05:44:29;8.80;99.90
53711;DHT22;39605;52.704;6.752;2022-12-26T05:46:56;8.80;99.90
53711;DHT22;39605;52.704;6.752;2022-12-26T05:49:39;8.80;99.90
53711;DHT22;39605;52.704;6.752;2022-12-26T05:52:14;8.80;99.90
53711;DHT22;39605;52.704;6.752;2022-12-26T05:54:42;8.80;99.90
53711;DHT22;39605;52.704;6.752;2022-12-26T05:57:34;8.80;99.90
53711;DHT22;39605;52.704;6.752;2022-12-26T06:00:03;8.80;99.90
53711;DHT22;39605;52.704;6.752;2022-12-26T06:02:38;8.70;99.90
53711;DHT22;39605;52.704;6.752;2022-12-26T06:05:13;8.70;99.90
53711;DHT22;39605;52.704;6.752;2022-12-26T06:08:02;8.70;99.90
53711;DHT22;39605;52.704;6.752;2022-12-26T06:10:45;8.60;99.90
53711;DHT22;39605;52.704;6.752;2022-12-26T06:13:14;8.60;99.90
53711;DHT22;39605;52.704;6.752;2022-12-26T06:15:42;8.60;99.90
53711;DHT22;39605;52.704;6.752;2022-12-26T06:18:17;8.60;99.90
53711;DHT22;39605;52.704;6.752;2022-12-26T06:21:04;8.60;99.90
53711;DHT22;39605;52.704;6.752;2022-12-26T06:23:37;8.50;99.90
53711;DHT22;39605;52.704;6.752;2022-12-26T06:26:12;8.60;99.90
53711;DHT22;39605;52.704;6.752;2022-12-26T06:28:44;8.60;99.90
53711;DHT22;39605;52.704;6.752;2022-12-26T06:31:18;8.60;99.90
53711;DHT22;39605;52.704;6.752;2022-12-26T06:33:54;8.60;99.90
53711;DHT22;39605;52.704;6.752;2022-12-26T06:36:30;8.60;99.90
53711;DHT22;39605;52.704;6.752;2022-12-26T06:39:19;8.60;99.90
53711;DHT22;39605;52.704;6.752;2022-12-26T06:41:52;8.60;99.90
53711;DHT22;39605;52.704;6.752;2022-12-26T06:44:18;8.70;99.90
53711;DHT22;39605;52.704;6.752;2022-12-26T06:46:56;8.60;99.90
53711;DHT22;39605;52.704;6.752;2022-12-26T06:49:39;8.70;99.90
53711;DHT22;39605;52.704;6.752;2022-12-26T06:52:07;8.60;99.90
53711;DHT22;39605;52.704;6.752;2022-12-26T06:55:26;8.60;99.90
53711;DHT22;39605;52.704;6.752;2022-12-26T06:58:01;8.60;99.90
53711;DHT22;39605;52.704;6.752;2022-12-26T07:00:42;8.60;99.90
53711;DHT22;39605;52.704;6.752;2022-12-26T07:03:19;8.50;99.90
53711;DHT22;39605;52.704;6.752;2022-12-26T07:09:04;8.50;99.90
53711;DHT22;39605;52.704;6.752;2022-12-26T07:11:49;8.40;99.90
53711;DHT22;39605;52.704;6.752;2022-12-26T07:14:20;8.30;99.90
53711;DHT22;39605;52.704;6.752;2022-12-26T07:16:48;8.30;99.90
53711;DHT22;39605;52.704;6.752;2022-12-26T07:19:31;8.40;99.90
53711;DHT22;39605;52.704;6.752;2022-12-26T07:21:57;8.30;99.90
53711;DHT22;39605;52.704;6.752;2022-12-26T07:24:26;8.30;99.90
53711;DHT22;39605;52.704;6.752;2022-12-26T07:26:54;8.20;99.90
53711;DHT22;39605;52.704;6.752;2022-12-26T07:29:23;8.20;99.90
53711;DHT22;39605;52.704;6.752;2022-12-26T07:31:51;8.20;99.90
53711;DHT22;39605;52.704;6.752;2022-12-26T07:34:27;8.20;99.90
53711;DHT22;39605;52.704;6.752;2022-12-26T07:36:56;8.20;99.90
53711;DHT22;39605;52.704;6.752;2022-12-26T07:39:29;8.20;99.90
53711;DHT22;39605;52.704;6.752;2022-12-26T07:42:13;8.20;99.90
53711;DHT22;39605;52.704;6.752;2022-12-26T07:44:49;8.20;99.90
53711;DHT22;39605;52.704;6.752;2022-12-26T07:47:17;8.20;99.90
53711;DHT22;39605;52.704;6.752;2022-12-26T07:49:43;8.20;99.90
53711;DHT22;39605;52.704;6.752;2022-12-26T07:52:08;8.20;99.90
53711;DHT22;39605;52.704;6.752;2022-12-26T07:54:34;8.20;99.90
53711;DHT22;39605;52.704;6.752;2022-12-26T07:57:00;8.10;99.90
53711;DHT22;39605;52.704;6.752;2022-12-26T07:59:26;8.20;99.90
53711;DHT22;39605;52.704;6.752;2022-12-26T08:01:52;8.20;99.90
53711;DHT22;39605;52.704;6.752;2022-12-26T08:04:20;8.20;99.90
53711;DHT22;39605;52.704;6.752;2022-12-26T08:06:49;8.20;99.90
53711;DHT22;39605;52.704;6.752;2022-12-26T08:09:22;8.20;99.90
53711;DHT22;39605;52.704;6.752;2022-12-26T08:11:48;8.20;99.90
53711;DHT22;39605;52.704;6.752;2022-12-26T08:14:17;8.20;99.90
53711;DHT22;39605;52.704;6.752;2022-12-26T08:16:45;8.20;99.90
53711;DHT22;39605;52.704;6.752;2022-12-26T08:19:20;8.20;99.90
53711;DHT22;39605;52.704;6.752;2022-12-26T08:21:46;8.20;99.90
53711;DHT22;39605;52.704;6.752;2022-12-26T08:24:22;8.30;99.90
53711;DHT22;39605;52.704;6.752;2022-12-26T08:26:50;8.30;99.90
53711;DHT22;39605;52.704;6.752;2022-12-26T08:29:19;8.30;99.90
53711;DHT22;39605;52.704;6.752;2022-12-26T08:31:45;8.30;99.90
53711;DHT22;39605;52.704;6.752;2022-12-26T08:34:10;8.30;99.90
53711;DHT22;39605;52.704;6.752;2022-12-26T08:36:38;8.40;99.90
53711;DHT22;39605;52.704;6.752;2022-12-26T08:39:04;8.40;99.90
53711;DHT22;39605;52.704;6.752;2022-12-26T08:41:29;8.40;99.90
53711;DHT22;39605;52.704;6.752;2022-12-26T08:43:55;8.40;99.90
53711;DHT22;39605;52.704;6.752;2022-12-26T08:46:22;8.50;99.90
53711;DHT22;39605;52.704;6.752;2022-12-26T08:48:49;8.50;99.90
53711;DHT22;39605;52.704;6.752;2022-12-26T08:51:23;8.70;99.90
53711;DHT22;39605;52.704;6.752;2022-12-26T08:53:50;8.80;99.90
53711;DHT22;39605;52.704;6.752;2022-12-26T08:56:19;8.90;99.90
53711;DHT22;39605;52.704;6.752;2022-12-26T08:58:45;8.90;99.90
53711;DHT22;39605;52.704;6.752;2022-12-26T09:01:14;8.90;99.90
53711;DHT22;39605;52.704;6.752;2022-12-26T09:03:40;8.90;99.90
53711;DHT22;39605;52.704;6.752;2022-12-26T09:06:07;8.90;99.90
53711;DHT22;39605;52.704;6.752;2022-12-26T09:08:34;8.90;99.90
53711;DHT22;39605;52.704;6.752;2022-12-26T09:11:05;9.00;99.90
53711;DHT22;39605;52.704;6.752;2022-12-26T09:13:32;9.10;99.90
53711;DHT22;39605;52.704;6.752;2022-12-26T09:16:05;9.10;99.90
53711;DHT22;39605;52.704;6.752;2022-12-26T09:18:31;9.20;99.90
53711;DHT22;39605;52.704;6.752;2022-12-26T09:21:01;9.30;99.90
53711;DHT22;39605;52.704;6.752;2022-12-26T09:23:27;9.30;99.90
53711;DHT22;39605;52.704;6.752;2022-12-26T09:25:53;9.30;99.90
53711;DHT22;39605;52.704;6.752;2022-12-26T09:28:19;9.30;99.90
53711;DHT22;39605;52.704;6.752;2022-12-26T09:30:45;9.30;99.90
53711;DHT22;39605;52.704;6.752;2022-12-26T09:33:10;9.40;99.90
53711;DHT22;39605;52.704;6.752;2022-12-26T09:35:40;9.40;99.90
53711;DHT22;39605;52.704;6.752;2022-12-26T09:38:06;9.40;99.90
53711;DHT22;39605;52.704;6.752;2022-12-26T09:49:02;9.50;99.90
53711;DHT22;39605;52.704;6.752;2022-12-26T09:51:30;9.50;99.90
53711;DHT22;39605;52.704;6.752;2022-12-26T09:53:58;9.50;99.90
53711;DHT22;39605;52.704;6.752;2022-12-26T09:56:26;9.50;99.90
53711;DHT22;39605;52.704;6.752;2022-12-26T09:58:55;9.50;99.90
53711;DHT22;39605;52.704;6.752;2022-12-26T10:01:33;9.50;99.90
53711;DHT22;39605;52.704;6.752;2022-12-26T10:04:00;9.60;99.90
53711;DHT22;39605;52.704;6.752;2022-12-26T10:06:33;9.60;99.90
53711;DHT22;39605;52.704;6.752;2022-12-26T10:17:39;9.70;99.90
53711;DHT22;39605;52.704;6.752;2022-12-26T10:28:26;9.60;99.90
53711;DHT22;39605;52.704;6.752;2022-12-26T10:30:54;9.60;99.90
53711;DHT22;39605;52.704;6.752;2022-12-26T10:33:35;9.50;99.90
53711;DHT22;39605;52.704;6.752;2022-12-26T10:36:07;9.30;99.90
53711;DHT22;39605;52.704;6.752;2022-12-26T10:38:42;9.20;99.90
53711;DHT22;39605;52.704;6.752;2022-12-26T10:41:38;9.10;99.90
53711;DHT22;39605;52.704;6.752;2022-12-26T10:44:10;8.90;99.90
53711;DHT22;39605;52.704;6.752;2022-12-26T10:47:15;8.90;99.90
53711;DHT22;39605;52.704;6.752;2022-12-26T10:49:45;9.00;99.90
53711;DHT22;39605;52.704;6.752;2022-12-26T10:52:11;9.00;99.90
53711;DHT22;39605;52.704;6.752;2022-12-26T10:54:38;9.60;99.90
53711;DHT22;39605;52.704;6.752;2022-12-26T10:57:05;10.20;99.90
53711;DHT22;39605;52.704;6.752;2022-12-26T10:59:51;11.00;99.90
53711;DHT22;39605;52.704;6.752;2022-12-26T11:02:30;11.40;99.90
53711;DHT22;39605;52.704;6.752;2022-12-26T11:05:02;11.10;99.90
53711;DHT22;39605;52.704;6.752;2022-12-26T11:07:32;10.50;99.90
53711;DHT22;39605;52.704;6.752;2022-12-26T11:09:59;10.20;99.90
53711;DHT22;39605;52.704;6.752;2022-12-26T11:12:39;9.90;99.90
53711;DHT22;39605;52.704;6.752;2022-12-26T11:17:50;9.40;99.90
53711;DHT22;39605;52.704;6.752;2022-12-26T11:20:21;9.30;99.90
53711;DHT22;39605;52.704;6.752;2022-12-26T11:23:46;9.10;99.90
53711;DHT22;39605;52.704;6.752;2022-12-26T11:26:51;9.00;99.90
53711;DHT22;39605;52.704;6.752;2022-12-26T11:29:31;8.80;99.90
53711;DHT22;39605;52.704;6.752;2022-12-26T11:32:19;8.70;99.90
53711;DHT22;39605;52.704;6.752;2022-12-26T11:34:50;8.70;99.90
53711;DHT22;39605;52.704;6.752;2022-12-26T11:37:33;8.50;99.90
53711;DHT22;39605;52.704;6.752;2022-12-26T11:40:22;8.50;99.90
53711;DHT22;39605;52.704;6.752;2022-12-26T11:43:29;8.40;99.90
53711;DHT22;39605;52.704;6.752;2022-12-26T11:46:24;8.40;99.90
53711;DHT22;39605;52.704;6.752;2022-12-26T11:49:30;8.40;99.90
53711;DHT22;39605;52.704;6.752;2022-12-26T11:52:38;8.30;99.90
53711;DHT22;39605;52.704;6.752;2022-12-26T11:55:29;8.20;99.90
53711;DHT22;39605;52.704;6.752;2022-12-26T12:00:37;8.20;99.90
53711;DHT22;39605;52.704;6.752;2022-12-26T12:03:46;8.10;99.90
53711;DHT22;39605;52.704;6.752;2022-12-26T12:12:32;8.60;99.90
53711;DHT22;39605;52.704;6.752;2022-12-26T12:15:30;8.80;99.90
53711;DHT22;39605;52.704;6.752;2022-12-26T12:18:58;8.70;99.90
53711;DHT22;39605;52.704;6.752;2022-12-26T12:24:59;8.60;99.90
53711;DHT22;39605;52.704;6.752;2022-12-26T12:30:26;9.00;99.90
53711;DHT22;39605;52.704;6.752;2022-12-26T12:40:16;9.90;99.90
53711;DHT22;39605;52.704;6.752;2022-12-26T13:02:03;9.10;99.90
53711;DHT22;39605;52.704;6.752;2022-12-26T13:04:39;8.80;99.90
53711;DHT22;39605;52.704;6.752;2022-12-26T13:07:37;8.50;99.90
53711;DHT22;39605;52.704;6.752;2022-12-26T13:10:19;8.30;99.90
53711;DHT22;39605;52.704;6.752;2022-12-26T13:12:46;8.20;99.90
53711;DHT22;39605;52.704;6.752;2022-12-26T13:15:35;8.10;99.90
53711;DHT22;39605;52.704;6.752;2022-12-26T13:18:13;8.00;99.90
53711;DHT22;39605;52.704;6.752;2022-12-26T13:21:04;8.00;99.90
53711;DHT22;39605;52.704;6.752;2022-12-26T13:23:51;7.90;99.90
53711;DHT22;39605;52.704;6.752;2022-12-26T13:26:48;8.00;99.90
53711;DHT22;39605;52.704;6.752;2022-12-26T13:31:57;7.90;99.90
53711;DHT22;39605;52.704;6.752;2022-12-26T13:34:24;7.90;99.90
53711;DHT22;39605;52.704;6.752;2022-12-26T13:36:52;7.90;99.90
53711;DHT22;39605;52.704;6.752;2022-12-26T13:39:31;7.80;99.90
53711;DHT22;39605;52.704;6.752;2022-12-26T13:42:18;7.70;99.90
53711;DHT22;39605;52.704;6.752;2022-12-26T14:04:49;7.60;99.90
53711;DHT22;39605;52.704;6.752;2022-12-26T14:07:31;7.60;99.90
53711;DHT22;39605;52.704;6.752;2022-12-26T14:16:20;7.40;99.90
53711;DHT22;39605;52.704;6.752;2022-12-26T14:45:37;6.80;99.90
53711;DHT22;39605;52.704;6.752;2022-12-26T14:47:56;6.60;99.90
53711;DHT22;39605;52.704;6.752;2022-12-26T14:56:45;6.40;99.90
53711;DHT22;39605;52.704;6.752;2022-12-26T15:22:24;5.80;99.90
53711;DHT22;39605;52.704;6.752;2022-12-26T15:31:35;5.50;99.90
53711;DHT22;39605;52.704;6.752;2022-12-26T15:34:22;5.60;99.90
53711;DHT22;39605;52.704;6.752;2022-12-26T15:46:23;5.40;99.90
53711;DHT22;39605;52.704;6.752;2022-12-26T16:00:25;5.30;99.90
53711;DHT22;39605;52.704;6.752;2022-12-26T16:03:20;5.30;99.90
53711;DHT22;39605;52.704;6.752;2022-12-26T16:08:55;5.30;99.90
53711;DHT22;39605;52.704;6.752;2022-12-26T16:11:44;5.30;99.90
53711;DHT22;39605;52.704;6.752;2022-12-26T16:14:46;5.30;99.90
53711;DHT22;39605;52.704;6.752;2022-12-26T16:17:26;5.30;99.90
53711;DHT22;39605;52.704;6.752;2022-12-26T16:20:10;5.20;99.90
53711;DHT22;39605;52.704;6.752;2022-12-26T16:23:09;5.20;99.90
53711;DHT22;39605;52.704;6.752;2022-12-26T16:26:13;5.20;99.90
53711;DHT22;39605;52.704;6.752;2022-12-26T16:35:58;4.90;99.90
53711;DHT22;39605;52.704;6.752;2022-12-26T16:42:36;4.90;99.90
53711;DHT22;39605;52.704;6.752;2022-12-26T16:52:01;5.00;99.90
53711;DHT22;39605;52.704;6.752;2022-12-26T16:58:34;4.80;99.90
53711;DHT22;39605;52.704;6.752;2022-12-26T17:01:49;5.00;99.90
53711;DHT22;39605;52.704;6.752;2022-12-26T17:08:09;4.80;99.90
53711;DHT22;39605;52.704;6.752;2022-12-26T17:11:19;4.80;99.90
53711;DHT22;39605;52.704;6.752;2022-12-26T17:20:30;4.70;99.90
53711;DHT22;39605;52.704;6.752;2022-12-26T17:22:38;4.70;99.90
53711;DHT22;39605;52.704;6.752;2022-12-26T17:30:49;4.60;99.90
53711;DHT22;39605;52.704;6.752;2022-12-26T17:33:50;4.70;99.90
53711;DHT22;39605;52.704;6.752;2022-12-26T17:36:25;4.50;99.90
53711;DHT22;39605;52.704;6.752;2022-12-26T17:39:23;4.50;99.90
53711;DHT22;39605;52.704;6.752;2022-12-26T17:42:10;4.50;99.90
53711;DHT22;39605;52.704;6.752;2022-12-26T17:45:11;4.40;99.90
53711;DHT22;39605;52.704;6.752;2022-12-26T17:48:05;4.40;99.90
53711;DHT22;39605;52.704;6.752;2022-12-26T17:50:40;4.40;99.90
53711;DHT22;39605;52.704;6.752;2022-12-26T17:53:39;4.30;99.90
53711;DHT22;39605;52.704;6.752;2022-12-26T17:56:21;4.30;99.90
53711;DHT22;39605;52.704;6.752;2022-12-26T17:59:16;4.30;99.90
53711;DHT22;39605;52.704;6.752;2022-12-26T18:04:49;4.20;99.90
53711;DHT22;39605;52.704;6.752;2022-12-26T18:07:27;4.20;99.90
53711;DHT22;39605;52.704;6.752;2022-12-26T18:09:52;4.20;99.90
53711;DHT22;39605;52.704;6.752;2022-12-26T18:12:25;4.20;99.90
53711;DHT22;39605;52.704;6.752;2022-12-26T18:21:14;4.20;99.90
53711;DHT22;39605;52.704;6.752;2022-12-26T18:24:43;4.20;99.90
53711;DHT22;39605;52.704;6.752;2022-12-26T18:28:07;4.10;99.90
53711;DHT22;39605;52.704;6.752;2022-12-26T18:30:48;4.10;99.90
53711;DHT22;39605;52.704;6.752;2022-12-26T18:43:51;4.20;99.90
53711;DHT22;39605;52.704;6.752;2022-12-26T18:46:41;4.50;99.90
53711;DHT22;39605;52.704;6.752;2022-12-26T18:56:58;4.10;99.90
53711;DHT22;39605;52.704;6.752;2022-12-26T19:03:02;4.10;99.90
53711;DHT22;39605;52.704;6.752;2022-12-26T19:09:46;4.10;99.90
53711;DHT22;39605;52.704;6.752;2022-12-26T19:13:00;4.10;99.90
53711;DHT22;39605;52.704;6.752;2022-12-26T19:16:12;4.10;99.90
53711;DHT22;39605;52.704;6.752;2022-12-26T19:18:59;4.10;99.90
53711;DHT22;39605;52.704;6.752;2022-12-26T19:24:55;4.10;99.90
53711;DHT22;39605;52.704;6.752;2022-12-26T19:28:04;4.00;99.90
53711;DHT22;39605;52.704;6.752;2022-12-26T19:31:13;4.10;99.90
53711;DHT22;39605;52.704;6.752;2022-12-26T19:37:17;4.00;99.90
53711;DHT22;39605;52.704;6.752;2022-12-26T19:40:22;4.00;99.90
53711;DHT22;39605;52.704;6.752;2022-12-26T19:43:32;4.00;99.90
53711;DHT22;39605;52.704;6.752;2022-12-26T19:46:06;4.00;99.90
53711;DHT22;39605;52.704;6.752;2022-12-26T19:48:46;4.00;99.90
53711;DHT22;39605;52.704;6.752;2022-12-26T19:51:13;3.90;99.90
53711;DHT22;39605;52.704;6.752;2022-12-26T19:53:40;3.90;99.90
53711;DHT22;39605;52.704;6.752;2022-12-26T19:56:15;3.90;99.90
53711;DHT22;39605;52.704;6.752;2022-12-26T19:58:52;4.00;99.90
53711;DHT22;39605;52.704;6.752;2022-12-26T20:01:29;3.90;99.90
53711;DHT22;39605;52.704;6.752;2022-12-26T20:04:18;3.90;99.90
53711;DHT22;39605;52.704;6.752;2022-12-26T20:06:46;3.90;99.90
53711;DHT22;39605;52.704;6.752;2022-12-26T20:09:13;3.90;99.90
53711;DHT22;39605;52.704;6.752;2022-12-26T20:11:46;3.90;99.90
53711;DHT22;39605;52.704;6.752;2022-12-26T20:14:18;4.00;99.90
53711;DHT22;39605;52.704;6.752;2022-12-26T20:16:46;4.30;99.90
53711;DHT22;39605;52.704;6.752;2022-12-26T20:19:21;4.00;99.90
53711;DHT22;39605;52.704;6.752;2022-12-26T20:21:47;4.00;99.90
53711;DHT22;39605;52.704;6.752;2022-12-26T20:24:13;4.00;99.90
53711;DHT22;39605;52.704;6.752;2022-12-26T20:27:09;4.30;99.90
53711;DHT22;39605;52.704;6.752;2022-12-26T20:29:48;4.10;99.90
53711;DHT22;39605;52.704;6.752;2022-12-26T20:32:14;4.10;99.90
53711;DHT22;39605;52.704;6.752;2022-12-26T20:34:40;4.10;99.90
53711;DHT22;39605;52.704;6.752;2022-12-26T20:37:08;4.10;99.90
53711;DHT22;39605;52.704;6.752;2022-12-26T20:39:36;4.10;99.90
53711;DHT22;39605;52.704;6.752;2022-12-26T20:42:12;4.30;99.90
53711;DHT22;39605;52.704;6.752;2022-12-26T20:44:43;4.10;99.90
53711;DHT22;39605;52.704;6.752;2022-12-26T20:47:37;4.40;99.90
53711;DHT22;39605;52.704;6.752;2022-12-26T20:50:06;4.10;99.90
53711;DHT22;39605;52.704;6.752;2022-12-26T20:52:40;4.20;99.90
53711;DHT22;39605;52.704;6.752;2022-12-26T20:55:15;4.30;99.90
53711;DHT22;39605;52.704;6.752;2022-12-26T20:57:42;4.30;99.90
53711;DHT22;39605;52.704;6.752;2022-12-26T21:00:11;4.30;99.90
53711;DHT22;39605;52.704;6.752;2022-12-26T21:02:39;4.30;99.90
53711;DHT22;39605;52.704;6.752;2022-12-26T21:05:13;4.30;99.90
53711;DHT22;39605;52.704;6.752;2022-12-26T21:07:42;4.30;99.90
53711;DHT22;39605;52.704;6.752;2022-12-26T21:10:10;4.60;99.90
53711;DHT22;39605;52.704;6.752;2022-12-26T21:12:46;4.30;99.90
53711;DHT22;39605;52.704;6.752;2022-12-26T21:15:12;4.20;99.90
53711;DHT22;39605;52.704;6.752;2022-12-26T21:17:58;4.20;99.90
53711;DHT22;39605;52.704;6.752;2022-12-26T21:20:37;4.20;99.90
53711;DHT22;39605;52.704;6.752;2022-12-26T21:23:05;4.30;99.90
53711;DHT22;39605;52.704;6.752;2022-12-26T21:25:33;4.30;99.90
53711;DHT22;39605;52.704;6.752;2022-12-26T21:28:07;4.30;99.90
53711;DHT22;39605;52.704;6.752;2022-12-26T21:30:37;4.40;99.90
53711;DHT22;39605;52.704;6.752;2022-12-26T21:33:03;4.40;99.90
53711;DHT22;39605;52.704;6.752;2022-12-26T21:35:36;4.30;99.90
53711;DHT22;39605;52.704;6.752;2022-12-26T21:38:04;4.30;99.90
53711;DHT22;39605;52.704;6.752;2022-12-26T21:40:30;4.30;99.90
53711;DHT22;39605;52.704;6.752;2022-12-26T21:42:56;4.20;99.90
53711;DHT22;39605;52.704;6.752;2022-12-26T21:45:22;4.20;99.90
53711;DHT22;39605;52.704;6.752;2022-12-26T21:47:50;4.30;99.90
53711;DHT22;39605;52.704;6.752;2022-12-26T21:50:19;4.10;99.90
53711;DHT22;39605;52.704;6.752;2022-12-26T21:52:47;4.10;99.90
53711;DHT22;39605;52.704;6.752;2022-12-26T21:55:13;4.10;99.90
53711;DHT22;39605;52.704;6.752;2022-12-26T21:57:54;4.10;99.90